Breeze Hill, South Carolina
Current Conditions -  °F | °C
As of 3:53 PM on Saturday 22 Nov 2014 (Local Time) from KDNL Reporting Station
Clear Clear  
Wind Chill: 18°   Ceiling: Unl
Heat Index: 18°   Visibility: 10mi
Dew Point: -3°   Wind: 9mph
Humidity: 25%   Direction: 120°ESE
Pressure: 30.33"   Gusts: NA
Location:  33.5159°N, 81.8379°W
Report Text: KDNL 222053Z AUTO 12008KT 10SM CLR 18/M03 A3033 RMK AO2 SLP269 T01781028 56028
Loading
Personal Weather Stations






























Interactive Weather Map New forecast layout! Learn more

10-Day Weather Forecast

Advertisements
Track Severe Weather on mobile